createdAt,value
2018-12-10T00:01:20.342Z,101380.73
2018-12-10T00:04:45.023Z,101376.06
2018-12-10T00:08:09.796Z,101380.61
2018-12-10T00:11:34.610Z,101379.73
2018-12-10T00:14:59.337Z,101381.58
2018-12-10T00:18:24.085Z,101387.59
2018-12-10T00:21:48.819Z,101391.45
2018-12-10T00:25:13.525Z,101399.14
2018-12-10T00:28:38.250Z,101405.61
2018-12-10T00:32:03.089Z,101415.45
2018-12-10T00:35:27.884Z,101419.70
2018-12-10T00:38:52.621Z,101418.04
2018-12-10T00:42:17.371Z,101421.09
2018-12-10T00:45:42.156Z,101431.63
2018-12-10T00:49:06.859Z,101425.97
2018-12-10T00:52:31.656Z,101437.05
2018-12-10T00:55:56.369Z,101445.59
2018-12-10T00:59:21.064Z,101451.75
2018-12-10T01:02:45.765Z,101449.78
2018-12-10T01:06:10.520Z,101455.14
2018-12-10T01:09:35.232Z,101451.28
2018-12-10T01:12:59.887Z,101462.14
2018-12-10T01:16:24.628Z,101468.94
2018-12-10T01:19:49.353Z,101478.36
2018-12-10T01:23:14.076Z,101479.59
2018-12-10T01:26:38.794Z,101489.02
2018-12-10T01:30:03.574Z,101493.91
2018-12-10T01:33:28.276Z,101493.03
2018-12-10T01:36:53.024Z,101498.95
2018-12-10T01:40:17.774Z,101504.77
2018-12-10T01:43:42.478Z,101511.83
2018-12-10T01:47:07.181Z,101509.97
2018-12-10T01:50:32.136Z,101519.68
2018-12-10T01:53:56.867Z,101533.39
2018-12-10T01:57:21.594Z,101534.47
2018-12-10T02:00:46.387Z,101529.05
2018-12-10T02:04:11.181Z,101532.13
2018-12-10T02:07:35.930Z,101533.01
2018-12-10T02:11:00.714Z,101539.35
2018-12-10T02:14:25.452Z,101545.13
2018-12-10T02:17:50.160Z,101553.03
2018-12-10T02:21:14.886Z,101550.48
2018-12-10T02:24:39.660Z,101565.39
2018-12-10T02:28:04.390Z,101560.78
2018-12-10T02:31:29.088Z,101569.16
2018-12-10T02:34:53.823Z,101565.86
2018-12-10T02:38:18.652Z,101572.04
2018-12-10T02:41:43.492Z,101569.50
2018-12-10T02:45:08.404Z,101568.89
2018-12-10T02:48:33.170Z,101574.72
2018-12-10T02:51:57.917Z,101570.81
2018-12-10T02:55:22.658Z,101574.43
2018-12-10T02:58:47.356Z,101573.23
2018-12-10T03:02:12.229Z,101575.63
2018-12-10T03:05:37.007Z,101585.30
2018-12-10T03:09:01.751Z,101585.57
2018-12-10T03:12:26.504Z,101583.63
2018-12-10T03:15:51.173Z,101589.05
2018-12-10T03:19:15.913Z,101600.13
2018-12-10T03:22:40.610Z,101601.48
2018-12-10T03:26:05.354Z,101598.94
2018-12-10T03:29:30.050Z,101602.59
2018-12-10T03:32:54.719Z,101596.28
2018-12-10T03:36:19.464Z,101598.06
2018-12-10T03:39:44.201Z,101604.62
2018-12-10T03:43:08.909Z,101608.33
2018-12-10T03:46:33.641Z,101610.36
2018-12-10T03:49:58.352Z,101621.10
2018-12-10T03:53:23.066Z,101615.39
2018-12-10T03:56:47.796Z,101612.14
2018-12-10T04:00:12.552Z,101624.16
2018-12-10T04:03:37.292Z,101628.56
2018-12-10T04:07:02.038Z,101625.03
2018-12-10T04:10:26.752Z,101629.11
2018-12-10T04:13:51.468Z,101622.97
2018-12-10T04:17:16.193Z,101625.66
2018-12-10T04:20:41.001Z,101622.63
2018-12-10T04:24:05.730Z,101631.14
2018-12-10T04:27:30.480Z,101636.71
2018-12-10T04:30:55.267Z,101638.91
2018-12-10T04:34:19.954Z,101637.69
2018-12-10T04:37:44.686Z,101649.59
2018-12-10T04:41:09.367Z,101652.84
2018-12-10T04:44:34.131Z,101658.64
2018-12-10T04:47:58.797Z,101665.56
2018-12-10T04:51:23.494Z,101684.87
2018-12-10T04:54:48.176Z,101686.69
2018-12-10T04:58:12.887Z,101687.64
2018-12-10T05:01:37.599Z,101690.77
2018-12-10T05:05:02.331Z,101695.14
2018-12-10T05:08:27.295Z,101696.22
2018-12-10T05:11:52.024Z,101692.31
2018-12-10T05:15:16.663Z,101691.13
2018-12-10T05:18:41.489Z,101694.37
2018-12-10T05:22:06.182Z,101700.30
2018-12-10T05:25:30.862Z,101698.42
2018-12-10T05:28:55.653Z,101705.76
2018-12-10T05:32:20.407Z,101710.74
2018-12-10T05:35:45.141Z,101729.61
2018-12-10T05:39:09.894Z,101749.38
2018-12-10T05:42:34.567Z,101743.88
2018-12-10T05:45:59.270Z,101748.02
2018-12-10T05:49:23.951Z,101745.77
2018-12-10T05:52:50.517Z,101749.16
2018-12-10T05:56:18.062Z,101747.55
2018-12-10T05:59:42.844Z,101745.48
2018-12-10T06:03:07.533Z,101736.24
2018-12-10T06:06:32.258Z,101746.30
2018-12-10T06:09:56.952Z,101745.91
2018-12-10T06:13:21.586Z,101751.06
2018-12-10T06:16:46.329Z,101754.97
2018-12-10T06:20:12.129Z,101761.38
2018-12-10T06:23:37.751Z,101766.81
2018-12-10T06:27:02.584Z,101766.29
2018-12-10T06:30:27.278Z,101782.42
2018-12-10T06:33:51.947Z,101775.46
2018-12-10T06:37:16.628Z,101772.17
2018-12-10T06:40:41.285Z,101770.52
2018-12-10T06:44:05.980Z,101782.20
2018-12-10T06:47:30.796Z,101782.06
2018-12-10T06:50:55.491Z,101784.96
2018-12-10T06:54:20.062Z,101781.70
2018-12-10T06:57:44.782Z,101788.61
2018-12-10T07:01:09.498Z,101794.36
2018-12-10T07:04:34.143Z,101796.50
2018-12-10T07:07:58.827Z,101787.09
2018-12-10T07:11:23.484Z,101791.22
2018-12-10T07:14:48.257Z,101803.52
2018-12-10T07:18:13.018Z,101803.45
2018-12-10T07:21:37.683Z,101805.66
2018-12-10T07:25:02.419Z,101807.59
2018-12-10T07:28:27.134Z,101811.69
2018-12-10T07:31:51.882Z,101811.47
2018-12-10T07:35:16.592Z,101818.69
2018-12-10T07:38:41.230Z,101833.88
2018-12-10T07:42:05.993Z,101830.65
2018-12-10T07:45:30.665Z,101828.55
2018-12-10T07:48:55.383Z,101834.05
2018-12-10T07:52:20.077Z,101838.12
2018-12-10T07:55:44.751Z,101838.62
2018-12-10T07:59:09.435Z,101848.00
2018-12-10T08:02:34.145Z,101852.81
2018-12-10T08:05:58.831Z,101847.69
2018-12-10T08:09:23.527Z,101848.65
2018-12-10T08:12:48.218Z,101851.53
2018-12-10T08:16:12.995Z,101873.66
2018-12-10T08:19:37.717Z,101867.58
2018-12-10T08:23:02.491Z,101869.42
2018-12-10T08:26:27.191Z,101880.03
2018-12-10T08:29:51.887Z,101885.89
2018-12-10T08:33:16.578Z,101881.00
2018-12-10T08:36:41.314Z,101882.88
2018-12-10T08:40:06.417Z,101891.30
2018-12-10T08:43:31.149Z,101888.16
2018-12-10T08:46:56.889Z,101892.89
2018-12-10T08:50:21.536Z,101892.61
2018-12-10T08:53:46.229Z,101890.23
2018-12-10T08:57:10.984Z,101896.91
2018-12-10T09:00:35.893Z,101907.32
2018-12-10T09:04:00.631Z,101908.50
2018-12-10T09:07:25.306Z,101908.80
2018-12-10T09:10:50.047Z,101908.33
2018-12-10T09:14:14.695Z,101917.53
2018-12-10T09:17:39.417Z,101919.49
2018-12-10T09:21:04.058Z,101915.49
2018-12-10T09:24:28.699Z,101927.95
2018-12-10T09:27:53.377Z,101932.33
2018-12-10T09:31:18.058Z,101916.97
2018-12-10T09:34:42.766Z,101932.50
2018-12-10T09:38:07.444Z,101939.14
2018-12-10T09:41:32.114Z,101944.84
2018-12-10T09:44:56.801Z,101939.70
2018-12-10T09:48:21.589Z,101932.70
2018-12-10T09:51:46.262Z,101936.52
2018-12-10T09:55:11.074Z,101931.38
2018-12-10T09:58:35.784Z,101928.41
2018-12-10T10:02:00.480Z,101942.80
2018-12-10T10:05:25.172Z,101945.90
2018-12-10T10:08:50.079Z,101948.27
2018-12-10T10:12:14.860Z,101946.23
2018-12-10T10:15:39.591Z,101948.80
2018-12-10T10:19:05.243Z,101949.55
2018-12-10T10:22:29.912Z,101959.99
2018-12-10T10:25:54.923Z,101967.84
2018-12-10T10:29:19.678Z,101947.94
2018-12-10T10:32:44.400Z,101954.45
2018-12-10T10:36:09.129Z,101941.81
2018-12-10T10:39:33.876Z,101940.01
2018-12-10T10:42:58.682Z,101940.42
2018-12-10T10:46:23.783Z,101937.95
2018-12-10T10:49:48.559Z,101936.25
2018-12-10T10:53:13.301Z,101936.97
2018-12-10T10:56:38.115Z,101938.66
2018-12-10T11:00:02.840Z,101937.20
2018-12-10T11:03:32.485Z,101938.91
2018-12-10T11:07:03.088Z,101937.41
2018-12-10T11:10:27.959Z,101926.62
2018-12-10T11:13:52.701Z,101944.38
2018-12-10T11:17:17.418Z,101924.13
2018-12-10T11:20:42.164Z,101923.19
2018-12-10T11:24:06.825Z,101917.06
2018-12-10T11:27:31.546Z,101927.15
2018-12-10T11:30:56.183Z,101923.30
2018-12-10T11:34:20.894Z,101916.77
2018-12-10T11:37:45.593Z,101914.84
2018-12-10T11:41:10.385Z,101905.01
2018-12-10T11:44:36.507Z,101909.86
2018-12-10T11:48:01.238Z,101908.98
2018-12-10T11:51:25.944Z,101901.66
2018-12-10T11:54:50.632Z,101895.38
2018-12-10T11:58:15.396Z,101911.15
2018-12-10T12:01:40.068Z,101909.16
2018-12-10T12:05:04.894Z,101906.95
2018-12-10T12:08:29.606Z,101901.70
2018-12-10T12:11:54.328Z,101906.69
2018-12-10T12:15:19.249Z,101907.97
2018-12-10T12:18:48.993Z,101915.45
2018-12-10T12:22:13.778Z,101896.39
2018-12-10T12:25:38.450Z,101900.91
2018-12-10T12:29:03.123Z,101898.96
2018-12-10T12:32:27.801Z,101907.44
2018-12-10T12:35:52.652Z,101907.56
2018-12-10T12:39:17.334Z,101909.91
2018-12-10T12:42:42.012Z,101917.59
2018-12-10T12:46:06.698Z,101910.91
2018-12-10T12:49:31.398Z,101911.30
2018-12-10T12:52:56.134Z,101896.94
2018-12-10T12:56:20.824Z,101899.97
2018-12-10T12:59:45.491Z,101901.77
2018-12-10T13:03:10.238Z,101899.77
2018-12-10T13:06:35.012Z,101896.55
2018-12-10T13:09:59.674Z,101899.53
2018-12-10T13:13:24.468Z,101895.36
2018-12-10T13:16:49.676Z,101899.94
2018-12-10T13:20:14.743Z,101903.50
2018-12-10T13:23:39.453Z,101893.86
2018-12-10T13:27:04.178Z,101899.09
2018-12-10T13:30:28.958Z,101895.80
2018-12-10T13:33:53.819Z,101907.45
2018-12-10T13:37:18.425Z,101901.37
2018-12-10T13:40:43.176Z,101909.39
2018-12-10T13:44:07.899Z,101903.41
2018-12-10T13:47:32.601Z,101891.64
2018-12-10T13:50:57.294Z,101894.11
2018-12-10T13:54:22.022Z,101901.20
2018-12-10T13:57:46.754Z,101900.38
2018-12-10T14:01:11.457Z,101895.05
2018-12-10T14:08:14.706Z,101900.55
2018-12-10T14:11:39.467Z,101899.61
2018-12-10T14:15:05.212Z,101903.87
2018-12-10T14:18:29.973Z,101901.72
2018-12-10T14:21:54.789Z,101911.70
2018-12-10T14:25:26.987Z,101911.34
2018-12-10T14:28:51.666Z,101918.86
2018-12-10T14:32:16.349Z,101921.84
2018-12-10T14:35:41.034Z,101912.09
2018-12-10T14:39:10.536Z,101917.33
2018-12-10T14:42:51.001Z,101918.33
2018-12-10T14:46:15.708Z,101923.38
2018-12-10T14:49:40.720Z,101915.72
2018-12-10T14:53:08.209Z,101919.62
2018-12-10T14:56:32.910Z,101926.47
2018-12-10T15:00:08.266Z,101934.78
2018-12-10T15:03:32.967Z,101942.66
2018-12-10T15:06:57.623Z,101940.15
2018-12-10T15:10:23.391Z,101945.86
2018-12-10T15:13:48.294Z,101948.83
2018-12-10T15:17:13.137Z,101957.97
2018-12-10T15:20:38.008Z,101957.99
2018-12-10T15:24:02.719Z,101963.64
2018-12-10T15:27:27.393Z,101969.45
2018-12-10T15:30:52.178Z,101963.05
2018-12-10T15:34:16.864Z,101973.95
2018-12-10T15:37:42.464Z,101980.33
2018-12-10T15:41:07.326Z,101976.98
2018-12-10T15:44:32.565Z,101982.20
2018-12-10T15:47:57.301Z,101983.69
2018-12-10T15:51:22.039Z,101984.73
2018-12-10T15:54:47.061Z,101983.63
2018-12-10T15:58:11.826Z,101985.33
2018-12-10T16:01:36.448Z,101988.83
2018-12-10T16:05:01.163Z,101998.04
2018-12-10T16:08:25.930Z,101996.17
2018-12-10T16:11:50.635Z,102000.83
2018-12-10T16:15:15.445Z,101996.44
2018-12-10T16:18:40.124Z,102004.55
2018-12-10T16:22:04.895Z,102006.39
2018-12-10T16:25:29.658Z,102005.36
2018-12-10T16:28:54.344Z,102009.25
2018-12-10T16:32:19.096Z,102008.97
2018-12-10T16:35:44.171Z,102010.08
2018-12-10T16:39:10.795Z,102008.05
2018-12-10T16:42:35.466Z,102016.55
2018-12-10T16:46:00.162Z,102014.55
2018-12-10T16:49:24.871Z,102024.53
2018-12-10T16:52:49.524Z,102027.91
2018-12-10T16:56:14.441Z,102023.18
2018-12-10T16:59:39.250Z,102032.74
2018-12-10T17:03:04.267Z,102028.52
2018-12-10T17:06:28.999Z,102032.14
2018-12-10T17:09:53.705Z,102034.08
2018-12-10T17:13:18.383Z,102037.72
2018-12-10T17:16:43.141Z,102029.91
2018-12-10T17:20:08.537Z,102037.72
2018-12-10T17:23:33.275Z,102041.69
2018-12-10T17:26:57.935Z,102041.02
2018-12-10T17:30:22.598Z,102040.30
2018-12-10T17:33:47.356Z,102047.36
2018-12-10T17:37:12.045Z,102055.74
2018-12-10T17:40:36.763Z,102056.58
2018-12-10T17:44:01.807Z,102061.50
2018-12-10T17:47:26.532Z,102061.11
2018-12-10T17:50:52.252Z,102058.97
2018-12-10T17:54:16.913Z,102044.47
2018-12-10T17:57:41.613Z,102052.89
2018-12-10T18:01:06.338Z,102047.31
2018-12-10T18:04:31.106Z,102043.25
2018-12-10T18:07:55.790Z,102040.36
2018-12-10T18:11:20.462Z,102047.31
2018-12-10T18:14:45.157Z,102051.72
2018-12-10T18:18:09.815Z,102057.00
2018-12-10T18:21:34.459Z,102054.98
2018-12-10T18:24:59.096Z,102056.17
2018-12-10T18:28:23.797Z,102053.84
2018-12-10T18:31:48.584Z,102058.72
2018-12-10T18:35:13.443Z,102055.05
2018-12-10T18:38:38.112Z,102052.30
2018-12-10T18:42:02.801Z,102056.73
2018-12-10T18:45:28.182Z,102057.02
2018-12-10T18:48:53.088Z,102060.25
2018-12-10T18:52:17.770Z,102061.16
2018-12-10T18:55:42.554Z,102060.28
2018-12-10T18:59:07.273Z,102066.78
2018-12-10T19:02:32.017Z,102067.19
2018-12-10T19:05:56.871Z,102063.97
2018-12-10T19:09:21.498Z,102064.31
2018-12-10T19:12:46.173Z,102057.30
2018-12-10T19:16:11.117Z,102055.14
2018-12-10T19:19:35.807Z,102054.91
2018-12-10T19:23:00.818Z,102051.61
2018-12-10T19:26:25.582Z,102061.34
2018-12-10T19:29:50.396Z,102059.72
2018-12-10T19:33:15.215Z,102059.74
2018-12-10T19:36:39.953Z,102058.75
2018-12-10T19:40:05.116Z,102069.40
2018-12-10T19:43:29.872Z,102073.25
2018-12-10T19:46:55.739Z,102082.58
2018-12-10T19:50:21.332Z,102086.55
2018-12-10T19:53:46.192Z,102094.63
2018-12-10T19:57:10.922Z,102091.07
2018-12-10T20:00:35.861Z,102091.68
2018-12-10T20:04:00.544Z,102088.30
2018-12-10T20:10:58.962Z,102096.11
2018-12-10T20:14:23.704Z,102092.56
2018-12-10T20:17:49.532Z,102095.45
2018-12-10T20:21:14.255Z,102102.75
2018-12-10T20:24:38.995Z,102097.16
2018-12-10T20:28:03.789Z,102100.91
2018-12-10T20:31:28.439Z,102092.37
2018-12-10T20:34:53.213Z,102090.69
2018-12-10T20:38:20.536Z,102094.41
2018-12-10T20:41:46.278Z,102096.66
2018-12-10T20:45:11.651Z,102097.08
2018-12-10T20:48:36.370Z,102108.20
2018-12-10T20:52:01.014Z,102092.01
2018-12-10T20:55:29.388Z,102091.91
2018-12-10T20:58:56.555Z,102095.80
2018-12-10T21:02:21.234Z,102097.27
2018-12-10T21:05:51.852Z,102103.95
2018-12-10T21:09:17.128Z,102094.63
2018-12-10T21:12:43.801Z,102095.42
2018-12-10T21:16:10.521Z,102094.64
2018-12-10T21:19:35.366Z,102095.56
2018-12-10T21:23:00.113Z,102087.89
2018-12-10T21:26:25.076Z,102099.44
2018-12-10T21:29:49.962Z,102097.59
2018-12-10T21:33:14.769Z,102099.25
2018-12-10T21:36:40.383Z,102093.12
2018-12-10T21:40:06.283Z,102102.43
2018-12-10T21:43:31.031Z,102099.30
2018-12-10T21:46:55.841Z,102098.79
2018-12-10T21:50:22.164Z,102105.66
2018-12-10T21:53:48.045Z,102100.59
2018-12-10T21:57:13.007Z,102110.33
2018-12-10T22:00:38.072Z,102107.84
2018-12-10T22:04:03.304Z,102111.56
2018-12-10T22:07:28.159Z,102109.77
2018-12-10T22:10:52.952Z,102105.56
2018-12-10T22:14:20.714Z,102106.06
2018-12-10T22:17:46.364Z,102107.53
2018-12-10T22:21:12.245Z,102100.02
2018-12-10T22:24:38.188Z,102094.17
2018-12-10T22:28:02.944Z,102088.42
2018-12-10T22:31:27.705Z,102106.38
2018-12-10T22:34:52.960Z,102100.91
2018-12-10T22:38:17.653Z,102096.98
2018-12-10T22:41:42.402Z,102100.70
2018-12-10T22:45:07.686Z,102114.05
2018-12-10T22:48:32.468Z,102116.19
2018-12-10T22:51:57.205Z,102116.09
2018-12-10T22:55:21.968Z,102121.78
2018-12-10T22:58:46.692Z,102112.59
2018-12-10T23:02:11.440Z,102117.75
2018-12-10T23:05:36.679Z,102114.19
2018-12-10T23:09:03.862Z,102119.95
2018-12-10T23:12:28.999Z,102124.13
2018-12-10T23:15:53.859Z,102127.17
2018-12-10T23:19:18.694Z,102123.16
2018-12-10T23:22:43.363Z,102124.53
2018-12-10T23:26:08.181Z,102120.56
2018-12-10T23:29:36.016Z,102124.16
2018-12-10T23:33:00.771Z,102124.50
2018-12-10T23:36:25.468Z,102129.97
2018-12-10T23:39:50.161Z,102134.12
2018-12-10T23:43:20.164Z,102132.60
2018-12-10T23:46:45.128Z,102134.66
2018-12-10T23:50:09.856Z,102123.21
2018-12-10T23:53:34.579Z,102126.18
2018-12-10T23:56:59.286Z,102130.41
